Aérodrome :
LOGIN :

S'inscrire | Disclaimer

   EN    FR    IT 

 










Légende :    VFR   VFR Marginal   IFR   IFR Intensif   IFR Très Intensif
Visi : 
Plafond : 
>= 8 km
>= 3000ft
5 à 8 km
1000 à 3000 ft
1500m à 5 km
500 à 1000 ft
800 à 1500m
200 à 500 ft
< 800m
< 200 ft
Symboles :   Orages  Brouillard  Fortes neiges  Fortes précipitations  Vent > 20 kt
SIGMETs :   Divers  Orages  Givrage  Turbulence  Onde Orograph.  Cendres Volcan.







- Altitude de l'aérodrome : 1830 ft


EBLB - Butgenbach Elsenborn

DERNIER METAR :
  • 180625Z AUTO VRB02KT 6000 OVC023/// 15/15 Q1015 WHT

METARs EXPIRÉS :
  • 180612Z AUTO VRB02KT 3600 +RA BKN020/// OVC038/// 15/15 Q1015 YLO
  • 180555Z AUTO VRB01KT 6000 -RA BKN020/// OVC038/// 15/14 Q1015 WHT
  • 180534Z AUTO VRB01KT 9999 BKN023/// BKN068/// 14/14 Q1015 WHT
  • 180525Z AUTO VRB01KT 9999 BKN034/// BKN068/// 14/14 Q1015 BLU
  • 180514Z AUTO VRB01KT 9999 -RA FEW004/// BKN017/// BKN068/// 14/14 Q1015 WHT
  • 180455Z AUTO VRB02KT 6000 RA OVC004/// 14/14 Q1015 YLO
  • 180425Z AUTO 24006KT 2700 RA OVC003/// 16/16 Q1015 YLO
  • 180423Z AUTO 22006KT 1400 -RA OVC003/// 16/16 Q1015 AMB
  • 180355Z AUTO 21004KT 2700 DZ OVC003/// 16/16 Q1015 YLO
  • 180333Z AUTO VRB01KT 1400 RA OVC003/// 16/16 Q1015 AMB
  • 180325Z AUTO VRB01KT 2200 DZ OVC003/// 16/16 Q1015 YLO

Prévision TAF périmée.
Pas de NOTAMs connus pour ce terrain.



MET'MAP, la Météo Aéronautique d'un coup d'oeil ! - Copyright ORBIFLY Décembre 2007 - Disclaimer

ORBIFLY MET'MAP TEAM :

Programmation & Développement : Alexandra Zaïnal
Conception & Développement : Baudouin d'Aumeries
Co-Programmation & Développement : Marc-Olivier Méhu
Soutien technique & logistique : Manuel Goepfert

Contact : metmap@orbifly.com




SOURCES & CREDITS :

   NOAA